Time;durP1;ratioP1;P1;durP2;ratioP2;P2;SDS_P1;SDS_P2;PMS_P1;PMS_P2;Temp;Humidity;BMP_temperature;BMP_pressure;BME280_temperature;BME280_humidity;BME280_pressure;Samples;Min_cycle;Max_cycle;Signal;HPM_P1;HPM_P2
2022/10/07 00:01:11;;;;;;;13.33;3.13;;;;;;;;;;5073925;28;20483;-42
2022/10/07 00:03:38;;;;;;;9.30;3.80;;;;;;;;;;5073777;28;20982;-41
2022/10/07 00:06:09;;;;;;;7.73;4.40;;;;;;;;;;5074175;28;20436;-42
2022/10/07 00:08:36;;;;;;;7.50;3.80;;;;;;;;;;5073842;28;20429;-42
2022/10/07 00:11:03;;;;;;;5.50;2.90;;;;;;;;;;5073578;28;20833;-42
2022/10/07 00:13:30;;;;;;;11.13;4.17;;;;;;;;;;5073632;28;20440;-42
2022/10/07 00:16:02;;;;;;;13.37;4.50;;;;;;;;;;5074025;28;20496;-42
2022/10/07 00:18:28;;;;;;;8.53;3.60;;;;;;;;;;5073419;28;20485;-42
2022/10/07 00:20:54;;;;;;;12.50;4.20;;;;;;;;;;5073829;28;20409;-42
2022/10/07 00:23:19;;;;;;;9.00;4.50;;;;;;;;;;5073577;28;20408;-42
2022/10/07 00:25:45;;;;;;;8.47;2.90;;;;;;;;;;5073950;28;20411;-42
2022/10/07 00:28:11;;;;;;;11.00;3.80;;;;;;;;;;5072332;28;20436;-42
2022/10/07 00:30:37;;;;;;;8.83;3.37;;;;;;;;;;5073283;28;20413;-42
2022/10/07 00:33:03;;;;;;;7.00;4.40;;;;;;;;;;5073384;28;20413;-42
2022/10/07 00:35:29;;;;;;;9.47;4.77;;;;;;;;;;5073546;28;20455;-42
2022/10/07 00:37:55;;;;;;;7.43;4.00;;;;;;;;;;5073326;28;20942;-42
2022/10/07 00:40:21;;;;;;;10.80;3.50;;;;;;;;;;5073133;28;20404;-42
2022/10/07 00:42:47;;;;;;;8.87;4.07;;;;;;;;;;5073297;28;20408;-42
2022/10/07 00:45:14;;;;;;;9.13;3.00;;;;;;;;;;5073289;28;20396;-42
2022/10/07 00:47:43;;;;;;;10.67;3.67;;;;;;;;;;5073147;28;20494;-42
2022/10/07 00:50:25;;;;;;;6.40;4.00;;;;;;;;;;5072869;28;20417;-42
2022/10/07 00:52:52;;;;;;;8.57;3.97;;;;;;;;;;5073162;28;20427;-42
2022/10/07 00:55:19;;;;;;;9.27;3.50;;;;;;;;;;5073184;28;20410;-42
2022/10/07 00:57:47;;;;;;;7.90;3.80;;;;;;;;;;5072806;28;20915;-42
2022/10/07 01:00:13;;;;;;;6.23;3.57;;;;;;;;;;5072651;28;20402;-42
2022/10/07 01:02:39;;;;;;;8.03;3.90;;;;;;;;;;5071844;28;20425;-42
2022/10/07 01:05:08;;;;;;;11.70;4.17;;;;;;;;;;5072514;28;20770;-42
2022/10/07 01:07:34;;;;;;;9.43;4.80;;;;;;;;;;5072649;28;20960;-42
2022/10/07 01:10:01;;;;;;;6.20;3.57;;;;;;;;;;5072283;28;20396;-42
2022/10/07 01:12:50;;;;;;;7.80;3.70;;;;;;;;;;5072475;28;20411;-42
2022/10/07 01:15:16;;;;;;;15.10;3.70;;;;;;;;;;5072704;28;20783;-42
2022/10/07 01:17:45;;;;;;;9.27;3.70;;;;;;;;;;5072494;28;20456;-42
2022/10/07 01:20:11;;;;;;;10.30;4.17;;;;;;;;;;5072245;28;20396;-42
2022/10/07 01:22:46;;;;;;;6.87;3.83;;;;;;;;;;5072569;28;20788;-42
2022/10/07 01:25:25;;;;;;;9.13;3.80;;;;;;;;;;5072408;28;20837;-42
2022/10/07 01:27:52;;;;;;;5.97;2.97;;;;;;;;;;5072348;28;20435;-42
2022/10/07 01:30:18;;;;;;;11.13;2.93;;;;;;;;;;5072129;28;20485;-42
2022/10/07 01:32:52;;;;;;;6.90;3.97;;;;;;;;;;5072464;28;20954;-42
2022/10/07 01:35:20;;;;;;;10.93;3.43;;;;;;;;;;5072251;28;20404;-42
2022/10/07 01:37:48;;;;;;;5.20;3.57;;;;;;;;;;5071711;28;20978;-42
2022/10/07 01:40:16;;;;;;;8.20;3.47;;;;;;;;;;5071598;28;20743;-42
2022/10/07 01:42:43;;;;;;;12.67;3.83;;;;;;;;;;5072175;28;20474;-42
2022/10/07 01:45:11;;;;;;;10.37;3.63;;;;;;;;;;5072195;28;20904;-42
2022/10/07 01:47:37;;;;;;;10.83;4.00;;;;;;;;;;5072065;28;20973;-42
2022/10/07 01:50:10;;;;;;;9.73;3.33;;;;;;;;;;5071555;28;20509;-42
2022/10/07 01:52:49;;;;;;;7.00;4.00;;;;;;;;;;5072043;28;20419;-42
2022/10/07 01:55:18;;;;;;;12.00;4.70;;;;;;;;;;5072066;28;20880;-42
2022/10/07 01:57:56;;;;;;;9.40;4.63;;;;;;;;;;5071703;28;20456;-42
2022/10/07 02:00:23;;;;;;;8.60;4.40;;;;;;;;;;5071958;28;20411;-42
2022/10/07 02:03:03;;;;;;;15.63;5.03;;;;;;;;;;5071779;28;20420;-42
2022/10/07 02:05:32;;;;;;;17.73;5.17;;;;;;;;;;5071897;28;20400;-42
2022/10/07 02:08:07;;;;;;;10.43;5.70;;;;;;;;;;5071770;28;20578;-42
2022/10/07 02:10:43;;;;;;;10.20;4.97;;;;;;;;;;5071394;28;20403;-42
2022/10/07 02:13:13;;;;;;;15.60;6.63;;;;;;;;;;5071681;28;20904;-42
2022/10/07 02:15:44;;;;;;;11.97;6.07;;;;;;;;;;5071775;28;20481;-42
2022/10/07 02:18:13;;;;;;;12.60;5.50;;;;;;;;;;5071425;28;20963;-42
2022/10/07 02:20:41;;;;;;;8.67;5.43;;;;;;;;;;5071377;28;20487;-42
2022/10/07 02:23:08;;;;;;;11.50;4.90;;;;;;;;;;5071585;28;20411;-42
2022/10/07 02:25:37;;;;;;;12.30;4.30;;;;;;;;;;5071412;28;20404;-41
2022/10/07 02:28:04;;;;;;;9.67;4.40;;;;;;;;;;5071426;28;20431;-42
2022/10/07 02:30:31;;;;;;;8.07;4.30;;;;;;;;;;5071156;28;20403;-42
2022/10/07 02:32:58;;;;;;;7.37;3.90;;;;;;;;;;5071410;28;20964;-42
2022/10/07 02:35:30;;;;;;;7.27;4.07;;;;;;;;;;5071645;28;20962;-42
2022/10/07 02:37:58;;;;;;;10.10;3.90;;;;;;;;;;5071161;28;20489;-42
2022/10/07 02:40:27;;;;;;;15.43;4.07;;;;;;;;;;5071078;28;20932;-41
2022/10/07 02:42:57;;;;;;;15.07;3.90;;;;;;;;;;5071352;28;20417;-42
2022/10/07 02:45:36;;;;;;;9.23;3.27;;;;;;;;;;5071887;28;20400;-42
2022/10/07 02:48:08;;;;;;;10.63;4.30;;;;;;;;;;5071185;28;20473;-42
2022/10/07 02:50:36;;;;;;;10.47;3.90;;;;;;;;;;5071035;28;20411;-42
2022/10/07 02:53:03;;;;;;;8.80;4.90;;;;;;;;;;5075490;28;20412;-42
2022/10/07 02:55:30;;;;;;;5.67;3.67;;;;;;;;;;5075556;28;20404;-42
2022/10/07 02:57:58;;;;;;;8.77;3.40;;;;;;;;;;5074700;28;20753;-42
2022/10/07 03:00:24;;;;;;;5.63;3.80;;;;;;;;;;5074931;28;20401;-42
2022/10/07 03:02:54;;;;;;;9.37;3.60;;;;;;;;;;5075003;28;20439;-42
2022/10/07 03:05:23;;;;;;;10.53;3.93;;;;;;;;;;5075461;28;20487;-42
2022/10/07 03:07:50;;;;;;;12.73;3.60;;;;;;;;;;5075040;28;20902;-42
2022/10/07 03:10:16;;;;;;;8.33;3.77;;;;;;;;;;5074805;28;20469;-42
2022/10/07 03:12:42;;;;;;;14.80;3.33;;;;;;;;;;5075109;28;20924;-41
2022/10/07 03:15:12;;;;;;;6.83;2.73;;;;;;;;;;5075335;28;20812;-42
2022/10/07 03:17:41;;;;;;;6.47;3.07;;;;;;;;;;5074487;28;20494;-42
2022/10/07 03:20:08;;;;;;;21.77;3.70;;;;;;;;;;5074606;28;20499;-42
2022/10/07 03:22:34;;;;;;;5.93;3.30;;;;;;;;;;5074886;28;20484;-42
2022/10/07 03:25:00;;;;;;;4.37;3.10;;;;;;;;;;5075062;28;20504;-42
2022/10/07 03:27:27;;;;;;;15.23;3.73;;;;;;;;;;5074472;28;20424;-42
2022/10/07 03:29:54;;;;;;;6.43;4.07;;;;;;;;;;5074308;28;20792;-42
2022/10/07 03:32:20;;;;;;;5.83;4.20;;;;;;;;;;5074717;28;20403;-42
2022/10/07 03:34:46;;;;;;;13.03;4.30;;;;;;;;;;5074894;28;20415;-42
2022/10/07 03:37:11;;;;;;;15.77;4.43;;;;;;;;;;5074515;28;20866;-42
2022/10/07 03:39:37;;;;;;;12.47;6.00;;;;;;;;;;5073904;28;20844;-42
2022/10/07 03:42:04;;;;;;;20.93;5.30;;;;;;;;;;5074747;28;20388;-42
2022/10/07 03:44:30;;;;;;;14.07;7.13;;;;;;;;;;5074375;28;20400;-42
2022/10/07 03:46:57;;;;;;;12.63;4.97;;;;;;;;;;5074426;28;20419;-42
2022/10/07 03:49:23;;;;;;;10.27;5.13;;;;;;;;;;5073669;28;20804;-42
2022/10/07 03:51:49;;;;;;;8.87;5.53;;;;;;;;;;5074627;28;20487;-42
2022/10/07 03:54:15;;;;;;;18.90;6.20;;;;;;;;;;5074209;28;20420;-42
2022/10/07 03:56:41;;;;;;;19.67;6.23;;;;;;;;;;5074845;28;20504;-42
2022/10/07 03:59:07;;;;;;;15.50;8.10;;;;;;;;;;5073623;28;20450;-42
2022/10/07 04:01:33;;;;;;;15.27;6.03;;;;;;;;;;5073871;28;20403;-42
2022/10/07 04:04:00;;;;;;;14.23;6.00;;;;;;;;;;5074243;28;20631;-42
2022/10/07 04:06:26;;;;;;;22.10;5.60;;;;;;;;;;5074272;28;20399;-42
2022/10/07 04:08:54;;;;;;;11.10;4.90;;;;;;;;;;5073458;28;20452;-42
2022/10/07 04:11:20;;;;;;;9.83;4.20;;;;;;;;;;5074286;28;20487;-42
2022/10/07 04:13:46;;;;;;;13.83;5.33;;;;;;;;;;5073781;28;20776;-42
2022/10/07 04:16:13;;;;;;;9.60;3.40;;;;;;;;;;5074078;28;20455;-42
2022/10/07 04:18:42;;;;;;;15.43;4.97;;;;;;;;;;5073763;28;20426;-42
2022/10/07 04:21:08;;;;;;;5.27;3.57;;;;;;;;;;5073726;28;20397;-42
2022/10/07 04:23:35;;;;;;;12.60;3.40;;;;;;;;;;5074087;28;20440;-42
2022/10/07 04:26:01;;;;;;;13.00;4.07;;;;;;;;;;5074015;28;20441;-42
2022/10/07 04:28:27;;;;;;;12.20;3.57;;;;;;;;;;5073246;28;20920;-42
2022/10/07 04:30:53;;;;;;;15.47;3.70;;;;;;;;;;5073524;28;20399;-42
2022/10/07 04:33:20;;;;;;;7.00;3.50;;;;;;;;;;5073542;28;20413;-42
2022/10/07 04:35:49;;;;;;;15.87;3.97;;;;;;;;;;5073890;28;20460;-42
2022/10/07 04:38:15;;;;;;;8.80;3.50;;;;;;;;;;5073032;28;20463;-42
2022/10/07 04:40:42;;;;;;;11.17;3.23;;;;;;;;;;5073157;28;20483;-42
2022/10/07 04:43:18;;;;;;;7.17;2.90;;;;;;;;;;5073832;28;20782;-42
2022/10/07 04:45:44;;;;;;;6.17;3.37;;;;;;;;;;5073609;28;20397;-42
2022/10/07 04:48:10;;;;;;;12.57;3.77;;;;;;;;;;5073653;28;20850;-43
2022/10/07 04:50:37;;;;;;;9.17;3.53;;;;;;;;;;5073203;28;20483;-42
2022/10/07 04:53:03;;;;;;;10.60;3.30;;;;;;;;;;5073196;28;20495;-42
2022/10/07 04:55:29;;;;;;;10.97;3.40;;;;;;;;;;5073191;28;20553;-42
2022/10/07 04:57:55;;;;;;;9.90;4.10;;;;;;;;;;5072815;28;20969;-42
2022/10/07 05:00:21;;;;;;;5.27;3.53;;;;;;;;;;5072892;28;20444;-43
2022/10/07 05:02:49;;;;;;;15.13;4.33;;;;;;;;;;5072937;28;20791;-42
2022/10/07 05:05:16;;;;;;;8.90;4.60;;;;;;;;;;5073169;28;20399;-42
2022/10/07 05:07:42;;;;;;;10.33;4.53;;;;;;;;;;5072698;28;20426;-42
2022/10/07 05:10:08;;;;;;;11.43;4.27;;;;;;;;;;5072731;28;20839;-42
2022/10/07 05:12:34;;;;;;;10.50;4.00;;;;;;;;;;5072833;28;20462;-42
2022/10/07 05:15:01;;;;;;;9.80;3.90;;;;;;;;;;5072383;28;20503;-42
2022/10/07 05:17:27;;;;;;;12.50;4.63;;;;;;;;;;5072747;28;20487;-42
2022/10/07 05:19:53;;;;;;;11.57;4.40;;;;;;;;;;5071772;28;20931;-42
2022/10/07 05:22:19;;;;;;;9.97;3.77;;;;;;;;;;5073307;28;20487;-42
2022/10/07 05:24:45;;;;;;;8.70;3.17;;;;;;;;;;5072401;28;20416;-42
2022/10/07 05:27:12;;;;;;;7.53;3.23;;;;;;;;;;5072726;28;20408;-42
2022/10/07 05:29:39;;;;;;;6.47;2.90;;;;;;;;;;5071190;28;20478;-42
2022/10/07 05:32:05;;;;;;;11.47;3.93;;;;;;;;;;5070662;28;20434;-42
2022/10/07 05:34:31;;;;;;;4.80;2.67;;;;;;;;;;5071770;28;20415;-42
2022/10/07 05:36:58;;;;;;;13.03;3.60;;;;;;;;;;5071921;28;20439;-42
2022/10/07 05:39:24;;;;;;;7.93;3.67;;;;;;;;;;5071641;28;20513;-42
2022/10/07 05:41:50;;;;;;;3.83;2.80;;;;;;;;;;5071627;28;20860;-42
2022/10/07 05:44:16;;;;;;;6.10;3.20;;;;;;;;;;5072232;28;20505;-42
2022/10/07 05:46:42;;;;;;;17.63;3.60;;;;;;;;;;5072362;28;20410;-42
2022/10/07 05:49:08;;;;;;;10.30;4.20;;;;;;;;;;5071556;28;20517;-42
2022/10/07 05:51:34;;;;;;;7.23;3.33;;;;;;;;;;5071825;28;20402;-42
2022/10/07 05:54:00;;;;;;;6.73;3.07;;;;;;;;;;5072164;28;20426;-42
2022/10/07 05:56:26;;;;;;;7.33;2.97;;;;;;;;;;5072155;28;20546;-42
2022/10/07 05:58:52;;;;;;;8.93;3.70;;;;;;;;;;5071374;28;20517;-43
2022/10/07 06:01:20;;;;;;;7.60;3.23;;;;;;;;;;5071771;28;20396;-42
2022/10/07 06:03:54;;;;;;;7.90;3.43;;;;;;;;;;5071832;28;20572;-43
2022/10/07 06:06:20;;;;;;;8.83;3.70;;;;;;;;;;5071935;28;20400;-43
2022/10/07 06:08:46;;;;;;;8.50;3.10;;;;;;;;;;5071277;28;20446;-42
2022/10/07 06:13:58;;;;;;;6.03;2.97;;;;;;;;;;5041516;28;20419;-43
2022/10/07 06:16:24;;;;;;;5.13;3.23;;;;;;;;;;5051468;28;20458;-43
2022/10/07 06:18:51;;;;;;;11.00;3.57;;;;;;;;;;5051364;28;20830;-43
2022/10/07 06:21:17;;;;;;;11.17;3.87;;;;;;;;;;5051293;28;20408;-42
2022/10/07 06:23:43;;;;;;;5.33;3.40;;;;;;;;;;5051407;28;20405;-42
2022/10/07 06:26:10;;;;;;;13.83;4.17;;;;;;;;;;5050959;28;20527;-43
2022/10/07 06:28:40;;;;;;;9.93;3.97;;;;;;;;;;5051920;28;20919;-43
2022/10/07 06:31:08;;;;;;;10.63;4.93;;;;;;;;;;5042342;28;20920;-43
2022/10/07 06:33:34;;;;;;;6.90;3.43;;;;;;;;;;5051724;28;20405;-43
2022/10/07 06:36:07;;;;;;;11.60;3.90;;;;;;;;;;5050211;28;20417;-43
2022/10/07 06:38:33;;;;;;;7.60;3.60;;;;;;;;;;5051450;28;20425;-43
2022/10/07 06:41:00;;;;;;;8.40;3.50;;;;;;;;;;5050904;28;20401;-43
2022/10/07 06:43:26;;;;;;;13.73;4.20;;;;;;;;;;5051581;28;20429;-43
2022/10/07 06:45:52;;;;;;;7.80;2.50;;;;;;;;;;5051301;28;20909;-43
2022/10/07 06:48:18;;;;;;;8.20;2.83;;;;;;;;;;5051485;28;20539;-43
2022/10/07 06:50:51;;;;;;;7.70;3.43;;;;;;;;;;5050667;28;20437;-43
2022/10/07 06:53:17;;;;;;;6.93;2.70;;;;;;;;;;5051527;28;20410;-43
2022/10/07 06:55:43;;;;;;;10.57;3.30;;;;;;;;;;5051453;28;20406;-43
2022/10/07 06:58:09;;;;;;;10.43;3.27;;;;;;;;;;5050759;28;20468;-43
2022/10/07 07:00:35;;;;;;;8.80;3.07;;;;;;;;;;5049408;28;20459;-43
2022/10/07 07:03:01;;;;;;;4.93;3.00;;;;;;;;;;5051424;28;20508;-43
2022/10/07 07:05:37;;;;;;;4.60;3.00;;;;;;;;;;5050447;28;20894;-43
2022/10/07 07:08:03;;;;;;;5.33;2.57;;;;;;;;;;5051296;28;20425;-43
2022/10/07 07:10:29;;;;;;;11.97;3.30;;;;;;;;;;5050342;28;20901;-43
2022/10/07 07:12:56;;;;;;;6.83;3.00;;;;;;;;;;5051148;28;20409;-43
2022/10/07 07:15:22;;;;;;;4.70;2.70;;;;;;;;;;5051390;28;20413;-43
2022/10/07 07:17:48;;;;;;;4.93;2.63;;;;;;;;;;5051099;28;20836;-43
2022/10/07 07:20:14;;;;;;;7.77;2.73;;;;;;;;;;5050547;28;20431;-43
2022/10/07 07:22:42;;;;;;;6.00;2.30;;;;;;;;;;5051426;28;20448;-43
2022/10/07 07:25:11;;;;;;;8.73;3.17;;;;;;;;;;5051257;28;20414;-43
2022/10/07 07:27:37;;;;;;;7.17;3.23;;;;;;;;;;5051000;28;20426;-43
2022/10/07 07:30:04;;;;;;;7.60;2.73;;;;;;;;;;5050739;28;20420;-43
2022/10/07 07:32:30;;;;;;;7.43;2.77;;;;;;;;;;5050952;28;20629;-42
2022/10/07 07:34:56;;;;;;;5.97;1.93;;;;;;;;;;5051194;28;20492;-43
2022/10/07 07:37:23;;;;;;;9.00;2.20;;;;;;;;;;5052514;28;20560;-44
2022/10/07 07:39:49;;;;;;;6.67;2.77;;;;;;;;;;5054172;28;20486;-43
2022/10/07 07:42:15;;;;;;;11.13;3.87;;;;;;;;;;5054493;28;20942;-43
2022/10/07 07:44:41;;;;;;;6.30;2.60;;;;;;;;;;5054709;28;20409;-43
2022/10/07 07:47:07;;;;;;;4.57;2.80;;;;;;;;;;5054526;28;20905;-43
2022/10/07 07:49:34;;;;;;;6.80;2.87;;;;;;;;;;5054508;28;20415;-43
2022/10/07 07:52:00;;;;;;;5.33;2.50;;;;;;;;;;5054519;28;20414;-43
2022/10/07 07:54:27;;;;;;;7.50;2.40;;;;;;;;;;5055069;28;20418;-43
2022/10/07 07:56:56;;;;;;;5.57;2.80;;;;;;;;;;5054186;28;20998;-43
2022/10/07 07:59:24;;;;;;;8.77;2.57;;;;;;;;;;5054214;28;20429;-43
2022/10/07 08:01:50;;;;;;;5.53;2.83;;;;;;;;;;5053693;28;20428;-43
2022/10/07 08:04:16;;;;;;;4.40;2.17;;;;;;;;;;5054914;28;20909;-43
2022/10/07 08:06:42;;;;;;;8.20;3.30;;;;;;;;;;5054743;28;20403;-43
2022/10/07 08:09:08;;;;;;;13.27;4.13;;;;;;;;;;5053937;28;20426;-43
2022/10/07 08:11:34;;;;;;;7.87;2.47;;;;;;;;;;5053647;28;20455;-43
2022/10/07 08:14:02;;;;;;;5.30;1.80;;;;;;;;;;5054198;28;20799;-43
2022/10/07 08:16:28;;;;;;;6.90;2.13;;;;;;;;;;5054068;28;20507;-43
2022/10/07 08:18:56;;;;;;;8.67;1.93;;;;;;;;;;5053868;28;20430;-43
2022/10/07 08:21:26;;;;;;;6.10;2.67;;;;;;;;;;5053493;28;20566;-43
2022/10/07 08:23:52;;;;;;;6.37;2.43;;;;;;;;;;5054027;28;20403;-43
2022/10/07 08:26:18;;;;;;;18.77;3.30;;;;;;;;;;5053979;28;20420;-43
2022/10/07 08:28:45;;;;;;;7.77;2.27;;;;;;;;;;5053625;28;20930;-43
2022/10/07 08:31:13;;;;;;;7.60;2.17;;;;;;;;;;5073188;28;20390;-43
2022/10/07 08:33:39;;;;;;;6.33;1.77;;;;;;;;;;5073758;28;20378;-44
2022/10/07 08:36:06;;;;;;;11.03;2.70;;;;;;;;;;5073488;28;20429;-43
2022/10/07 08:38:37;;;;;;;7.87;2.20;;;;;;;;;;5073631;28;20501;-43
2022/10/07 08:41:06;;;;;;;6.93;2.27;;;;;;;;;;5056943;28;20393;-43
2022/10/07 08:43:32;;;;;;;5.33;2.90;;;;;;;;;;5053429;28;20405;-43
2022/10/07 08:45:59;;;;;;;6.00;2.10;;;;;;;;;;5053509;28;20412;-43
2022/10/07 08:48:29;;;;;;;9.50;2.17;;;;;;;;;;5039572;28;20536;-43
2022/10/07 08:51:13;;;;;;;6.43;2.30;;;;;;;;;;5049137;28;20897;-43
2022/10/07 08:53:43;;;;;;;9.67;2.37;;;;;;;;;;5053194;28;20889;-43
2022/10/07 08:56:12;;;;;;;7.00;2.27;;;;;;;;;;5053153;28;20463;-43
2022/10/07 08:58:45;;;;;;;7.83;2.10;;;;;;;;;;5053294;28;20439;-43
2022/10/07 09:01:28;;;;;;;6.80;1.80;;;;;;;;;;5052648;28;20478;-43
2022/10/07 09:03:56;;;;;;;10.00;2.93;;;;;;;;;;5052976;28;20420;-44
2022/10/07 09:06:34;;;;;;;10.57;2.97;;;;;;;;;;5053148;28;20434;-43
2022/10/07 09:09:12;;;;;;;6.30;2.00;;;;;;;;;;5052876;28;20424;-43
2022/10/07 09:11:40;;;;;;;4.33;2.23;;;;;;;;;;5052159;28;20411;-43
2022/10/07 09:14:18;;;;;;;6.63;2.13;;;;;;;;;;5052657;28;20498;-43
2022/10/07 09:16:46;;;;;;;8.07;2.47;;;;;;;;;;5072883;28;20951;-44
2022/10/07 09:19:29;;;;;;;6.20;1.90;;;;;;;;;;5072306;28;20460;-44
2022/10/07 09:21:59;;;;;;;5.67;2.43;;;;;;;;;;5073052;28;20437;-45
2022/10/07 09:24:27;;;;;;;7.00;2.00;;;;;;;;;;5072324;28;20404;-46
2022/10/07 09:26:58;;;;;;;5.00;1.70;;;;;;;;;;5072793;28;20483;-46
2022/10/07 09:29:26;;;;;;;4.20;2.17;;;;;;;;;;5071956;28;20505;-47
2022/10/07 09:31:52;;;;;;;9.20;1.93;;;;;;;;;;5072107;28;20434;-43
2022/10/07 09:34:23;;;;;;;8.43;2.30;;;;;;;;;;5071919;28;20506;-43
2022/10/07 09:37:07;;;;;;;6.27;2.00;;;;;;;;;;5072452;28;20541;-43
2022/10/07 09:39:33;;;;;;;6.40;2.20;;;;;;;;;;5072350;28;20489;-43
2022/10/07 09:42:00;;;;;;;5.20;2.40;;;;;;;;;;5072241;28;20479;-43
2022/10/07 09:44:26;;;;;;;6.27;2.23;;;;;;;;;;5070437;28;20440;-43
2022/10/07 09:46:58;;;;;;;7.87;2.33;;;;;;;;;;5072723;28;20811;-43
2022/10/07 09:49:30;;;;;;;6.93;1.93;;;;;;;;;;5071957;28;20424;-43
2022/10/07 09:52:01;;;;;;;5.90;1.83;;;;;;;;;;5071688;28;20428;-43
2022/10/07 09:54:28;;;;;;;10.30;2.50;;;;;;;;;;5071895;28;20475;-43
2022/10/07 09:56:58;;;;;;;9.07;2.40;;;;;;;;;;5072023;28;20462;-43
2022/10/07 09:59:25;;;;;;;5.50;1.83;;;;;;;;;;5071541;28;20412;-43
2022/10/07 10:01:52;;;;;;;4.00;1.90;;;;;;;;;;5071428;28;20401;-43
2022/10/07 10:04:19;;;;;;;4.17;2.10;;;;;;;;;;5071845;28;20411;-43
2022/10/07 10:06:47;;;;;;;6.93;2.07;;;;;;;;;;5071763;28;20401;-43
2022/10/07 10:09:13;;;;;;;5.53;1.80;;;;;;;;;;5071631;28;20427;-43
2022/10/07 10:11:39;;;;;;;6.13;1.80;;;;;;;;;;5071727;28;20404;-43
2022/10/07 10:14:24;;;;;;;5.93;1.93;;;;;;;;;;5071463;28;20405;-43
2022/10/07 10:16:50;;;;;;;3.00;1.50;;;;;;;;;;5071865;28;20482;-43
2022/10/07 10:19:26;;;;;;;6.97;2.27;;;;;;;;;;5071601;28;20481;-43
2022/10/07 10:21:56;;;;;;;5.77;1.87;;;;;;;;;;5071493;28;20396;-43
2022/10/07 10:27:15;;;;;;;7.20;2.00;;;;;;;;;;5071671;28;20466;-43
2022/10/07 10:29:51;;;;;;;3.00;1.70;;;;;;;;;;5070951;28;20445;-43
2022/10/07 10:32:31;;;;;;;4.47;2.40;;;;;;;;;;5071566;28;20407;-47
2022/10/07 10:35:15;;;;;;;5.13;2.07;;;;;;;;;;5071282;28;20435;-47
2022/10/07 10:37:41;;;;;;;8.67;2.37;;;;;;;;;;5071325;28;21021;-46
2022/10/07 10:40:14;;;;;;;10.63;2.47;;;;;;;;;;5070727;28;20400;-48
2022/10/07 10:42:47;;;;;;;7.27;2.23;;;;;;;;;;5071444;28;20400;-48
2022/10/07 10:45:32;;;;;;;2.93;1.53;;;;;;;;;;5071119;28;20392;-48
2022/10/07 10:47:59;;;;;;;6.90;2.00;;;;;;;;;;5071226;28;20475;-46
2022/10/07 10:50:30;;;;;;;5.20;1.73;;;;;;;;;;5070776;28;20837;-46
2022/10/07 10:53:02;;;;;;;7.97;1.80;;;;;;;;;;5071502;28;20904;-43
2022/10/07 10:55:28;;;;;;;9.17;1.93;;;;;;;;;;5071331;28;20405;-45
2022/10/07 10:57:54;;;;;;;3.90;1.93;;;;;;;;;;5071136;28;20456;-44
2022/10/07 11:00:21;;;;;;;9.47;2.10;;;;;;;;;;5070804;28;20446;-44
2022/10/07 11:03:05;;;;;;;10.40;2.53;;;;;;;;;;5071202;28;20200;-44
2022/10/07 11:05:32;;;;;;;4.93;1.90;;;;;;;;;;5071098;28;20403;-43
2022/10/07 11:08:10;;;;;;;7.97;2.07;;;;;;;;;;5066081;28;20793;-44
2022/10/07 11:10:40;;;;;;;8.73;1.80;;;;;;;;;;5050601;28;20902;-44
2022/10/07 11:13:12;;;;;;;6.43;1.80;;;;;;;;;;5053938;28;20405;-44
2022/10/07 11:15:42;;;;;;;8.73;1.70;;;;;;;;;;5053238;28;20504;-44
2022/10/07 11:18:13;;;;;;;9.40;1.80;;;;;;;;;;5054794;28;20461;-43
2022/10/07 11:20:42;;;;;;;7.70;2.10;;;;;;;;;;5054700;28;20468;-44
2022/10/07 11:23:28;;;;;;;9.13;2.37;;;;;;;;;;5054981;28;20484;-44
2022/10/07 11:26:04;;;;;;;8.13;2.17;;;;;;;;;;5054579;28;20412;-44
2022/10/07 11:28:32;;;;;;;4.33;1.60;;;;;;;;;;5054644;28;20417;-43
2022/10/07 11:31:11;;;;;;;6.90;1.90;;;;;;;;;;5054265;28;20397;-48
2022/10/07 11:33:57;;;;;;;12.00;2.07;;;;;;;;;;5054696;28;20405;-44
2022/10/07 11:36:39;;;;;;;7.20;1.90;;;;;;;;;;5054239;28;20440;-43
2022/10/07 11:39:05;;;;;;;3.70;1.80;;;;;;;;;;5054377;28;20495;-44
2022/10/07 11:41:33;;;;;;;7.43;3.30;;;;;;;;;;5053943;28;20415;-44
2022/10/07 11:44:07;;;;;;;5.17;2.40;;;;;;;;;;5054657;28;20400;-44
2022/10/07 11:46:35;;;;;;;5.30;1.87;;;;;;;;;;5054407;28;20420;-44
2022/10/07 11:49:12;;;;;;;7.13;2.10;;;;;;;;;;5052947;28;20428;-43
2022/10/07 11:51:53;;;;;;;6.97;1.80;;;;;;;;;;5052769;28;20401;-44
2022/10/07 11:54:21;;;;;;;6.40;2.03;;;;;;;;;;5052698;28;20424;-44
2022/10/07 11:56:49;;;;;;;9.50;2.30;;;;;;;;;;5052346;28;20467;-43
2022/10/07 11:59:30;;;;;;;6.70;2.13;;;;;;;;;;5052879;28;20431;-44
2022/10/07 12:01:56;;;;;;;6.83;2.37;;;;;;;;;;5054044;28;20768;-44
2022/10/07 12:04:23;;;;;;;7.23;2.10;;;;;;;;;;5054359;28;20919;-43
2022/10/07 12:07:08;;;;;;;8.40;2.73;;;;;;;;;;5054363;28;20401;-43
2022/10/07 12:09:53;;;;;;;4.00;1.70;;;;;;;;;;5054057;28;20400;-44
2022/10/07 12:12:23;;;;;;;8.83;2.87;;;;;;;;;;5054282;28;20424;-43
2022/10/07 12:15:02;;;;;;;4.10;1.90;;;;;;;;;;5054786;28;20459;-42
2022/10/07 12:17:29;;;;;;;7.33;2.20;;;;;;;;;;5054454;28;20463;-42
2022/10/07 12:20:14;;;;;;;5.60;2.00;;;;;;;;;;5053541;28;20910;-45
2022/10/07 12:22:41;;;;;;;8.87;2.30;;;;;;;;;;5054101;28;20396;-41
2022/10/07 12:25:28;;;;;;;6.57;2.60;;;;;;;;;;5054012;28;20477;-43
2022/10/07 12:27:54;;;;;;;2.63;1.63;;;;;;;;;;5053903;28;20975;-42
2022/10/07 12:30:38;;;;;;;12.73;3.37;;;;;;;;;;5053342;28;20397;-42
2022/10/07 12:33:15;;;;;;;6.57;2.43;;;;;;;;;;5053959;28;20479;-41
2022/10/07 12:35:42;;;;;;;8.00;2.40;;;;;;;;;;5053915;28;20767;-41
2022/10/07 12:38:18;;;;;;;7.27;2.30;;;;;;;;;;5053626;28;20968;-42
2022/10/07 12:40:57;;;;;;;11.70;2.30;;;;;;;;;;5053007;28;20858;-43
2022/10/07 12:43:23;;;;;;;7.80;2.00;;;;;;;;;;5053734;28;20408;-42
2022/10/07 12:45:49;;;;;;;7.27;2.57;;;;;;;;;;5053294;28;20804;-44
2022/10/07 12:48:19;;;;;;;9.20;2.10;;;;;;;;;;5053364;28;20428;-45
2022/10/07 12:50:46;;;;;;;5.63;2.30;;;;;;;;;;5052987;28;20401;-41
2022/10/07 12:53:12;;;;;;;10.27;2.80;;;;;;;;;;5053326;28;20455;-42
2022/10/07 12:55:41;;;;;;;8.43;2.50;;;;;;;;;;5053028;28;20405;-45
2022/10/07 13:01:29;;;;;;;4.23;2.03;;;;;;;;;;5052745;28;20400;-46
2022/10/07 13:04:05;;;;;;;6.87;2.93;;;;;;;;;;5053017;28;20567;-42
2022/10/07 13:06:53;;;;;;;7.50;3.50;;;;;;;;;;5053265;28;20416;-42
2022/10/07 13:09:19;;;;;;;6.20;2.60;;;;;;;;;;5052555;28;20433;-42
2022/10/07 13:11:51;;;;;;;5.40;2.23;;;;;;;;;;5052704;28;20405;-41
2022/10/07 13:14:20;;;;;;;11.20;2.43;;;;;;;;;;5052840;28;20967;-42
2022/10/07 13:16:49;;;;;;;4.77;2.43;;;;;;;;;;5052769;28;20457;-45
2022/10/07 13:19:15;;;;;;;8.70;2.27;;;;;;;;;;5052708;28;20512;-41
2022/10/07 13:21:45;;;;;;;9.13;3.23;;;;;;;;;;5052568;28;20496;-42
2022/10/07 13:24:15;;;;;;;10.37;2.70;;;;;;;;;;5053023;28;20549;-42
2022/10/07 13:26:44;;;;;;;6.57;2.30;;;;;;;;;;5052629;28;20412;-41
2022/10/07 13:29:19;;;;;;;10.30;2.37;;;;;;;;;;5052371;28;20513;-42
2022/10/07 13:32:01;;;;;;;3.73;2.50;;;;;;;;;;5052699;28;20405;-42
2022/10/07 13:34:27;;;;;;;7.73;2.30;;;;;;;;;;5052257;28;20527;-41
2022/10/07 13:36:53;;;;;;;4.40;2.17;;;;;;;;;;5052515;28;20453;-43
2022/10/07 13:39:21;;;;;;;6.70;2.23;;;;;;;;;;5052107;28;20443;-45
2022/10/07 13:41:48;;;;;;;8.10;2.77;;;;;;;;;;5050051;28;20924;-42
2022/10/07 13:44:17;;;;;;;4.70;2.10;;;;;;;;;;5052584;28;20393;-43
2022/10/07 13:46:49;;;;;;;13.03;2.20;;;;;;;;;;5052448;28;20441;-42
2022/10/07 13:49:21;;;;;;;12.27;2.43;;;;;;;;;;5052135;28;20425;-42
2022/10/07 13:51:47;;;;;;;8.60;2.53;;;;;;;;;;5052287;28;20402;-42
2022/10/07 13:54:19;;;;;;;8.83;2.47;;;;;;;;;;5052284;28;20781;-41
2022/10/07 13:56:46;;;;;;;9.77;2.53;;;;;;;;;;5052107;28;20521;-44
2022/10/07 13:59:16;;;;;;;4.57;1.90;;;;;;;;;;5051966;28;20421;-41
2022/10/07 14:01:43;;;;;;;6.70;2.30;;;;;;;;;;5051757;28;20398;-42
2022/10/07 14:04:19;;;;;;;7.73;2.37;;;;;;;;;;5052193;28;20412;-41
2022/10/07 14:06:57;;;;;;;6.90;2.10;;;;;;;;;;5052112;28;20886;-42
2022/10/07 14:09:25;;;;;;;4.17;2.00;;;;;;;;;;5051582;28;20792;-42
2022/10/07 14:11:59;;;;;;;6.30;2.17;;;;;;;;;;5050388;28;20409;-41
2022/10/07 14:14:31;;;;;;;10.00;2.77;;;;;;;;;;5050918;28;20499;-42
2022/10/07 14:17:00;;;;;;;9.57;2.53;;;;;;;;;;5047879;28;20461;-44
2022/10/07 14:19:31;;;;;;;9.60;2.10;;;;;;;;;;5030887;28;20437;-45
2022/10/07 14:21:57;;;;;;;6.00;1.97;;;;;;;;;;5031114;28;20410;-43
2022/10/07 14:24:23;;;;;;;13.10;3.70;;;;;;;;;;5039199;28;20413;-44
2022/10/07 14:26:49;;;;;;;8.53;2.80;;;;;;;;;;5051751;28;20908;-45
2022/10/07 14:29:27;;;;;;;8.57;1.90;;;;;;;;;;5051056;28;20444;-41
2022/10/07 14:35:19;;;;;;;9.33;2.10;;;;;;;;;;5051531;28;20807;-41
2022/10/07 14:37:46;;;;;;;6.57;2.00;;;;;;;;;;5051404;28;20837;-41
2022/10/07 14:40:19;;;;;;;6.70;2.50;;;;;;;;;;5050390;28;20406;-42
2022/10/07 14:42:46;;;;;;;7.47;2.13;;;;;;;;;;5050972;28;20402;-42
2022/10/07 14:45:16;;;;;;;6.23;1.80;;;;;;;;;;5051461;28;20401;-41
2022/10/07 14:47:43;;;;;;;6.57;2.00;;;;;;;;;;5050447;28;20939;-41
2022/10/07 14:50:11;;;;;;;4.00;1.90;;;;;;;;;;5051817;28;20406;-44
2022/10/07 14:52:45;;;;;;;7.97;2.07;;;;;;;;;;5051648;28;20781;-46
2022/10/07 14:55:21;;;;;;;8.60;1.87;;;;;;;;;;5051527;28;20488;-46
2022/10/07 14:57:47;;;;;;;8.60;2.20;;;;;;;;;;5049485;28;20456;-47
2022/10/07 15:00:13;;;;;;;8.43;2.47;;;;;;;;;;5050777;28;20397;-46
2022/10/07 15:02:39;;;;;;;5.87;2.33;;;;;;;;;;5050340;28;20419;-47